createdAt,value
2023-10-10T00:04:56.961Z,100838.88
2023-10-10T00:10:00.878Z,100843.47
2023-10-10T00:15:06.687Z,100843.69
2023-10-10T00:20:17.522Z,100834.91
2023-10-10T00:25:20.219Z,100838.88
2023-10-10T00:30:23.667Z,100834.44
2023-10-10T00:35:28.308Z,100833.00
2023-10-10T00:40:34.410Z,100833.41
2023-10-10T00:45:37.292Z,100826.91
2023-10-10T00:50:44.225Z,100828.38
2023-10-10T00:55:53.297Z,100826.84
2023-10-10T01:00:56.357Z,100821.19
2023-10-10T01:05:59.260Z,100819.06
2023-10-10T01:11:04.983Z,100828.84
2023-10-10T01:16:07.086Z,100831.56
2023-10-10T01:21:10.128Z,100828.41
2023-10-10T01:26:11.598Z,100826.91
2023-10-10T01:31:18.876Z,100827.16
2023-10-10T01:36:20.918Z,100817.94
2023-10-10T01:41:24.519Z,100814.75
2023-10-10T01:46:29.034Z,100810.97
2023-10-10T01:51:34.423Z,100813.63
2023-10-10T01:56:39.530Z,100813.16
2023-10-10T02:01:42.742Z,100811.06
2023-10-10T02:06:47.076Z,100811.69
2023-10-10T02:11:51.788Z,100802.06
2023-10-10T02:16:56.445Z,100802.66
2023-10-10T02:22:23.845Z,100807.56
2023-10-10T02:27:33.971Z,100803.78
2023-10-10T02:32:36.629Z,100800.66
2023-10-10T02:37:48.329Z,100802.72
2023-10-10T02:43:11.518Z,100800.25
2023-10-10T02:48:21.419Z,100807.94
2023-10-10T02:53:23.450Z,100803.31
2023-10-10T02:58:29.134Z,100807.44
2023-10-10T03:03:30.690Z,100811.38
2023-10-10T03:08:34.889Z,100804.03
2023-10-10T03:13:43.621Z,100809.84
2023-10-10T03:19:15.005Z,100802.28
2023-10-10T03:24:23.634Z,100790.00
2023-10-10T03:29:38.022Z,100805.56
2023-10-10T03:34:46.125Z,100799.84
2023-10-10T03:39:55.087Z,100813.38
2023-10-10T03:45:15.377Z,100805.44
2023-10-10T03:50:35.335Z,100816.00
2023-10-10T03:55:56.475Z,100805.75
2023-10-10T04:01:16.328Z,100811.75
2023-10-10T04:06:36.542Z,100802.53
2023-10-10T04:11:56.758Z,100807.69
2023-10-10T04:17:16.995Z,100807.22
2023-10-10T04:22:37.092Z,100802.00
2023-10-10T04:27:56.808Z,100799.06
2023-10-10T04:33:16.738Z,100801.94
2023-10-10T04:38:36.639Z,100802.72
2023-10-10T04:43:56.682Z,100803.50
2023-10-10T04:49:16.387Z,100810.84
2023-10-10T04:54:36.290Z,100811.41
2023-10-10T04:59:56.224Z,100819.06
2023-10-10T05:05:16.304Z,100814.06
2023-10-10T05:10:36.548Z,100813.59
2023-10-10T05:15:56.680Z,100806.31
2023-10-10T05:21:16.545Z,100810.41
2023-10-10T05:26:20.456Z,100805.84
2023-10-10T05:31:22.820Z,100805.41
2023-10-10T05:36:25.174Z,100805.59
2023-10-10T05:41:26.663Z,100797.06
2023-10-10T05:46:28.199Z,100809.41
2023-10-10T05:51:30.959Z,100804.66
2023-10-10T05:56:36.057Z,100813.13
2023-10-10T06:01:38.711Z,100810.59
2023-10-10T06:06:41.891Z,100815.47
2023-10-10T06:11:45.107Z,100822.06
2023-10-10T06:16:46.594Z,100822.63
2023-10-10T06:21:48.059Z,100828.03
2023-10-10T06:26:50.612Z,100836.88
2023-10-10T06:31:52.054Z,100842.19
2023-10-10T06:36:55.530Z,100839.94
2023-10-10T06:41:58.292Z,100845.91
2023-10-10T06:47:01.860Z,100842.69
2023-10-10T06:52:03.383Z,100843.03
2023-10-10T06:57:04.756Z,100842.25
2023-10-10T07:02:20.920Z,100846.69
2023-10-10T07:07:23.094Z,100840.69
2023-10-10T07:12:25.381Z,100839.13
2023-10-10T07:17:29.727Z,100851.31
2023-10-10T07:22:35.746Z,100844.75
2023-10-10T07:27:42.468Z,100849.09
2023-10-10T07:32:49.732Z,100842.56
2023-10-10T07:37:53.644Z,100844.56
2023-10-10T07:43:00.527Z,100846.94
2023-10-10T07:48:02.266Z,100843.69
2023-10-10T07:53:07.018Z,100852.09
2023-10-10T07:58:11.664Z,100853.88
2023-10-10T08:03:20.385Z,100849.28
2023-10-10T08:08:26.140Z,100852.63
2023-10-10T08:13:29.828Z,100857.88
2023-10-10T08:18:43.406Z,100854.97
2023-10-10T08:23:47.280Z,100854.13
2023-10-10T08:28:50.085Z,100856.44
2023-10-10T08:33:51.504Z,100857.47
2023-10-10T08:38:54.472Z,100844.50
2023-10-10T08:43:59.388Z,100838.56
2023-10-10T08:49:05.779Z,100833.09
2023-10-10T08:54:13.830Z,100820.84
2023-10-10T08:59:18.999Z,100831.47
2023-10-10T09:04:21.579Z,100836.44
2023-10-10T09:09:41.697Z,100831.09
2023-10-10T09:14:45.046Z,100830.06
2023-10-10T09:19:48.047Z,100832.41
2023-10-10T09:24:50.741Z,100820.69
2023-10-10T09:29:57.229Z,100827.41
2023-10-10T09:34:59.271Z,100821.91
2023-10-10T09:40:06.076Z,100817.56
2023-10-10T09:45:46.633Z,100807.44
2023-10-10T09:51:08.069Z,100804.75
2023-10-10T09:56:10.870Z,100802.63
2023-10-10T10:01:24.100Z,100799.16
2023-10-10T10:06:52.423Z,100796.28
2023-10-10T10:12:34.171Z,100798.38
2023-10-10T10:17:55.441Z,100806.97
2023-10-10T10:23:01.276Z,100811.03
2023-10-10T10:28:11.619Z,100806.44
2023-10-10T10:33:13.323Z,100809.91
2023-10-10T10:38:18.311Z,100805.53
2023-10-10T10:43:22.946Z,100810.19
2023-10-10T10:48:31.068Z,100812.09
2023-10-10T10:53:39.996Z,100818.75
2023-10-10T10:58:56.626Z,100808.59
2023-10-10T11:03:58.065Z,100798.09
2023-10-10T11:09:25.416Z,100792.59
2023-10-10T11:14:30.216Z,100784.47
2023-10-10T11:19:32.359Z,100775.84
2023-10-10T11:24:35.711Z,100766.63
2023-10-10T11:30:01.702Z,100754.59
2023-10-10T11:35:33.944Z,100745.41
2023-10-10T11:40:37.699Z,100741.78
2023-10-10T11:45:41.779Z,100735.72
2023-10-10T11:50:52.255Z,100729.94
2023-10-10T11:55:55.572Z,100725.44
2023-10-10T12:01:09.411Z,100720.16
2023-10-10T12:06:15.366Z,100714.00
2023-10-10T12:11:21.421Z,100710.88
2023-10-10T12:16:26.273Z,100706.31
2023-10-10T12:21:27.982Z,100702.78
2023-10-10T12:26:30.983Z,100693.09
2023-10-10T12:31:35.678Z,100692.44
2023-10-10T12:36:37.748Z,100695.03
2023-10-10T12:41:47.145Z,100690.47
2023-10-10T12:46:48.676Z,100697.31
2023-10-10T12:51:50.163Z,100687.84
2023-10-10T12:56:59.426Z,100683.53
2023-10-10T13:02:05.015Z,100675.03
2023-10-10T13:07:06.654Z,100673.06
2023-10-10T13:12:08.081Z,100664.53
2023-10-10T13:17:31.465Z,100671.66
2023-10-10T13:22:33.265Z,100658.59
2023-10-10T13:27:34.686Z,100654.22
2023-10-10T13:32:36.125Z,100651.72
2023-10-10T13:37:42.151Z,100650.31
2023-10-10T13:42:43.574Z,100653.84
2023-10-10T13:47:49.253Z,100643.50
2023-10-10T13:52:50.896Z,100641.34
2023-10-10T13:57:54.687Z,100646.94
2023-10-10T14:03:04.505Z,100639.81
2023-10-10T14:08:18.816Z,100628.00
2023-10-10T14:13:20.917Z,100629.38
2023-10-10T14:18:24.583Z,100623.03
2023-10-10T14:23:26.323Z,100621.94
2023-10-10T14:28:29.449Z,100618.38
2023-10-10T14:33:30.887Z,100620.03
2023-10-10T14:38:32.989Z,100622.78
2023-10-10T14:43:35.252Z,100610.66
2023-10-10T14:48:36.678Z,100616.69
2023-10-10T14:53:39.030Z,100616.69
2023-10-10T14:58:40.466Z,100604.28
2023-10-10T15:03:42.763Z,100613.66
2023-10-10T15:08:46.958Z,100610.34
2023-10-10T15:13:49.036Z,100616.44
2023-10-10T15:18:54.426Z,100613.13
2023-10-10T15:23:56.348Z,100606.50
2023-10-10T15:28:58.479Z,100598.22
2023-10-10T15:33:59.860Z,100607.88
2023-10-10T15:39:09.587Z,100604.03
2023-10-10T15:44:13.364Z,100602.34
2023-10-10T15:54:20.239Z,100595.22
2023-10-10T15:59:21.732Z,100591.84
2023-10-10T16:04:24.880Z,100606.63
2023-10-10T16:09:32.183Z,100605.16
2023-10-10T16:14:37.829Z,100614.31
2023-10-10T16:19:43.130Z,100600.41
2023-10-10T16:24:44.706Z,100603.78
2023-10-10T16:29:46.907Z,100616.72
2023-10-10T16:34:48.638Z,100608.47
2023-10-10T16:39:50.807Z,100610.66
2023-10-10T16:44:54.565Z,100608.66
2023-10-10T16:49:56.425Z,100599.75
2023-10-10T16:54:58.372Z,100609.19
2023-10-10T16:59:59.935Z,100607.13
2023-10-10T17:05:02.355Z,100605.06
2023-10-10T17:10:07.074Z,100606.56
2023-10-10T17:15:15.274Z,100608.00
2023-10-10T17:20:19.497Z,100614.97
2023-10-10T17:25:20.962Z,100622.16
2023-10-10T17:30:22.812Z,100619.81
2023-10-10T17:35:24.296Z,100617.19
2023-10-10T17:40:25.842Z,100608.53
2023-10-10T17:45:27.304Z,100617.19
2023-10-10T17:50:32.038Z,100616.44
2023-10-10T17:55:36.068Z,100615.06
2023-10-10T18:00:37.791Z,100608.16
2023-10-10T18:05:40.686Z,100609.06
2023-10-10T18:10:43.164Z,100614.47
2023-10-10T18:15:47.475Z,100616.50
2023-10-10T18:20:50.245Z,100613.72
2023-10-10T18:25:51.874Z,100613.88
2023-10-10T18:30:53.494Z,100607.53
2023-10-10T18:35:55.568Z,100606.63
2023-10-10T18:40:58.071Z,100604.25
2023-10-10T18:46:01.646Z,100607.72
2023-10-10T18:51:04.148Z,100604.91
2023-10-10T18:56:06.728Z,100604.75
2023-10-10T19:01:12.606Z,100600.06
2023-10-10T19:06:15.216Z,100601.41
2023-10-10T19:11:24.514Z,100613.00
2023-10-10T19:16:26.314Z,100610.75
2023-10-10T19:21:31.725Z,100612.31
2023-10-10T19:26:35.053Z,100610.06
2023-10-10T19:31:41.626Z,100606.75
2023-10-10T19:36:44.220Z,100605.97
2023-10-10T19:41:45.932Z,100611.03
2023-10-10T19:46:47.754Z,100613.38
2023-10-10T19:51:50.462Z,100615.72
2023-10-10T19:56:52.086Z,100603.19
2023-10-10T20:01:53.813Z,100602.41
2023-10-10T20:06:55.747Z,100599.50
2023-10-10T20:11:58.005Z,100599.53
2023-10-10T20:16:59.649Z,100599.13
2023-10-10T20:22:01.183Z,100598.91
2023-10-10T20:27:05.070Z,100600.84
2023-10-10T20:32:07.752Z,100599.34
2023-10-10T20:37:11.191Z,100600.84
2023-10-10T20:42:12.579Z,100591.44
2023-10-10T20:47:13.971Z,100590.63
2023-10-10T20:52:16.658Z,100589.56
2023-10-10T20:57:18.035Z,100585.16
2023-10-10T21:02:19.401Z,100594.53
2023-10-10T21:07:20.790Z,100583.00
2023-10-10T21:12:22.327Z,100583.19
2023-10-10T21:17:24.420Z,100576.00
2023-10-10T21:22:28.342Z,100580.13
2023-10-10T21:27:29.777Z,100576.09
2023-10-10T21:32:31.483Z,100571.50
2023-10-10T21:37:33.041Z,100564.72
2023-10-10T21:42:34.447Z,100569.31
2023-10-10T21:47:36.047Z,100564.84
2023-10-10T21:52:39.450Z,100561.91
2023-10-10T21:57:41.666Z,100565.59
2023-10-10T22:02:45.433Z,100564.34
2023-10-10T22:07:48.052Z,100552.56
2023-10-10T22:12:51.871Z,100548.13
2023-10-10T22:17:57.914Z,100542.19
2023-10-10T22:22:59.711Z,100550.72
2023-10-10T22:28:02.190Z,100536.06
2023-10-10T22:33:04.911Z,100534.00
2023-10-10T22:38:06.884Z,100547.00
2023-10-10T22:43:11.317Z,100550.00
2023-10-10T22:48:15.621Z,100535.63
2023-10-10T22:53:17.896Z,100535.22
2023-10-10T22:58:21.354Z,100533.41
2023-10-10T23:03:24.259Z,100538.88
2023-10-10T23:08:26.167Z,100538.13
2023-10-10T23:13:27.576Z,100535.19
2023-10-10T23:18:29.103Z,100539.94
2023-10-10T23:23:30.590Z,100524.28
2023-10-10T23:28:32.993Z,100515.75
2023-10-10T23:33:34.442Z,100520.56
2023-10-10T23:38:36.038Z,100521.06
2023-10-10T23:43:38.296Z,100518.75
2023-10-10T23:48:40.778Z,100513.09
2023-10-10T23:53:42.258Z,100503.31
2023-10-10T23:58:44.256Z,100492.84
